Time,TemperatureF,DewpointF,PressureIn,WindDirection,WindDirectionDegrees,WindSpeedMPH,WindSpeedGustMPH,Humidity,HourlyPrecipIn,Conditions,Clouds,dailyrainin,SoftwareType,DateUTC
2013-01-28 00:00:00,34.4,33.4,29.85,SSE,158,6.0,15.0,96,0.06,,,0.01,VWS V14.01,2013-01-28 06:00:00,
2013-01-28 00:11:00,34.4,34.0,29.84,SSW,202,4.0,13.0,97,0.02,,,0.00,weatherlink.com 1.10,2013-01-28 06:11:00,
2013-01-28 00:26:00,34.7,34.0,29.84,SE,130,8.0,14.0,97,0.01,,,0.00,weatherlink.com 1.10,2013-01-28 06:26:00,
2013-01-28 00:30:00,34.8,34.0,29.83,SSE,158,7.0,15.0,97,0.03,,,0.01,VWS V14.01,2013-01-28 06:30:00,
2013-01-28 00:41:00,34.8,34.0,29.83,South,185,6.0,17.0,97,0.01,,,0.00,weatherlink.com 1.10,2013-01-28 06:41:00,
2013-01-28 00:56:00,34.9,34.0,29.83,South,183,3.0,14.0,97,0.00,,,0.00,weatherlink.com 1.10,2013-01-28 06:56:00,
2013-01-28 01:00:00,34.9,34.1,29.83,South,180,6.0,17.0,97,0.01,,,0.01,VWS V14.01,2013-01-28 07:00:00,
2013-01-28 01:11:00,35.1,34.0,29.83,SSW,195,6.0,12.0,97,0.01,,,0.01,weatherlink.com 1.10,2013-01-28 07:11:00,
2013-01-28 01:26:00,35.5,35.0,29.83,SSW,209,5.0,13.0,98,0.01,,,0.01,weatherlink.com 1.10,2013-01-28 07:26:00,
2013-01-28 01:30:00,35.6,35.1,29.83,SSW,202,6.0,12.0,98,0.01,,,0.02,VWS V14.01,2013-01-28 07:30:00,
2013-01-28 01:41:00,36.0,36.0,29.82,SW,229,9.0,12.0,98,0.01,,,0.01,weatherlink.com 1.10,2013-01-28 07:41:00,
2013-01-28 01:56:00,37.0,37.0,29.82,SSW,203,7.0,11.0,98,0.02,,,0.02,weatherlink.com 1.10,2013-01-28 07:56:00,
2013-01-28 02:00:00,37.1,36.6,29.82,SSW,202,7.0,13.0,98,0.02,,,0.03,VWS V14.01,2013-01-28 08:00:00,
2013-01-28 02:11:00,37.3,37.0,29.82,SSW,209,7.0,11.0,98,0.01,,,0.02,weatherlink.com 1.10,2013-01-28 08:11:00,
2013-01-28 02:26:00,37.7,37.0,29.81,SW,215,6.0,14.0,98,0.01,,,0.02,weatherlink.com 1.10,2013-01-28 08:26:00,
2013-01-28 02:30:00,37.8,37.3,29.81,SSW,202,7.0,13.0,98,0.02,,,0.03,VWS V14.01,2013-01-28 08:30:00,
2013-01-28 02:41:00,38.4,38.0,29.81,SSW,200,4.0,13.0,98,0.00,,,0.02,weatherlink.com 1.10,2013-01-28 08:41:00,
2013-01-28 02:56:00,39.0,39.0,29.80,SSW,200,9.0,13.0,98,0.00,,,0.02,weatherlink.com 1.10,2013-01-28 08:56:00,
2013-01-28 03:00:00,39.2,38.7,29.80,SW,225,7.0,14.0,98,0.01,,,0.03,VWS V14.01,2013-01-28 09:00:00,
2013-01-28 03:11:00,39.4,39.0,29.80,SSW,209,7.0,15.0,98,0.01,,,0.03,weatherlink.com 1.10,2013-01-28 09:11:00,
2013-01-28 03:26:00,39.4,39.0,29.80,SW,229,5.0,14.0,98,0.01,,,0.03,weatherlink.com 1.10,2013-01-28 09:26:00,
2013-01-28 03:30:00,39.5,39.0,29.80,SW,225,9.0,16.0,98,0.01,,,0.04,VWS V14.01,2013-01-28 09:30:00,
2013-01-28 03:41:00,39.9,39.0,29.79,SW,229,13.0,14.0,98,0.01,,,0.03,weatherlink.com 1.10,2013-01-28 09:41:00,
2013-01-28 03:56:00,39.7,39.0,29.79,SSW,203,10.0,11.0,98,0.02,,,0.04,weatherlink.com 1.10,2013-01-28 09:56:00,
2013-01-28 04:00:00,39.7,39.2,29.79,SW,225,8.0,15.0,98,0.02,,,0.05,VWS V14.01,2013-01-28 10:00:00,
2013-01-28 04:11:00,39.9,39.0,29.79,SSW,213,6.0,13.0,98,0.01,,,0.04,weatherlink.com 1.10,2013-01-28 10:11:00,
2013-01-28 04:26:00,40.8,40.0,29.79,SW,232,7.0,17.0,98,0.01,,,0.04,weatherlink.com 1.10,2013-01-28 10:26:00,
2013-01-28 04:30:00,41.0,40.5,29.79,SW,225,8.0,16.0,98,0.02,,,0.05,VWS V14.01,2013-01-28 10:30:00,
2013-01-28 04:41:00,41.7,41.0,29.79,West,269,6.0,16.0,98,0.01,,,0.04,weatherlink.com 1.10,2013-01-28 10:41:00,
2013-01-28 04:56:00,42.5,42.0,29.79,SW,221,8.0,14.0,98,0.00,,,0.04,weatherlink.com 1.10,2013-01-28 10:56:00,
2013-01-28 05:00:00,42.5,42.0,29.79,SW,225,9.0,17.0,98,0.01,,,0.05,VWS V14.01,2013-01-28 11:00:00,
2013-01-28 05:11:00,42.3,42.0,29.79,SW,219,9.0,12.0,98,0.00,,,0.04,weatherlink.com 1.10,2013-01-28 11:11:00,
2013-01-28 05:27:00,41.9,41.0,29.80,WSW,244,5.0,11.0,98,0.00,,,0.04,weatherlink.com 1.10,2013-01-28 11:27:00,
2013-01-28 05:30:00,41.8,41.3,29.80,SW,225,7.0,14.0,98,0.00,,,0.05,VWS V14.01,2013-01-28 11:30:00,
2013-01-28 05:42:00,41.7,41.0,29.80,SSW,195,4.0,8.0,98,0.00,,,0.04,weatherlink.com 1.10,2013-01-28 11:42:00,
2013-01-28 05:57:00,41.4,41.0,29.81,SW,234,5.0,10.0,98,0.00,,,0.04,weatherlink.com 1.10,2013-01-28 11:57:00,
2013-01-28 06:00:00,41.2,40.7,29.81,SW,225,5.0,10.0,98,0.00,,,0.05,VWS V14.01,2013-01-28 12:00:00,
2013-01-28 06:12:00,40.7,40.0,29.81,SSW,205,3.0,7.0,98,0.01,,,0.05,weatherlink.com 1.10,2013-01-28 12:12:00,
2013-01-28 06:27:00,40.8,40.0,29.81,SW,226,7.0,10.0,98,0.01,,,0.05,weatherlink.com 1.10,2013-01-28 12:27:00,
2013-01-28 06:42:00,40.8,40.0,29.82,SW,217,7.0,8.0,98,0.01,,,0.05,weatherlink.com 1.10,2013-01-28 12:42:00,
2013-01-28 06:48:00,40.6,40.1,29.82,SW,234,4.0,5.0,98,0.00,,,0.05,VWS V14.01,2013-01-28 12:48:00,
2013-01-28 06:53:00,40.6,40.1,29.82,SSW,206,3.0,6.0,98,0.01,,,0.05,VWS V14.01,2013-01-28 12:53:00,
2013-01-28 06:58:00,40.6,40.1,29.83,West,271,1.0,6.0,98,0.01,,,0.05,VWS V14.01,2013-01-28 12:58:00,
2013-01-28 07:00:00,40.7,40.2,29.83,West,259,2.0,6.0,98,0.01,,OVC012,0.05,VWS V14.01,2013-01-28 13:00:00,
2013-01-28 07:03:00,40.7,40.2,29.83,WSW,238,5.0,5.0,98,0.01,,,0.05,VWS V14.01,2013-01-28 13:03:00,
2013-01-28 07:08:00,40.8,40.3,29.83,WSW,244,2.0,5.0,98,0.01,,,0.05,VWS V14.01,2013-01-28 13:08:00,
2013-01-28 07:13:00,40.8,40.3,29.83,SW,233,2.0,5.0,98,0.01,,,0.05,VWS V14.01,2013-01-28 13:13:00,
2013-01-28 07:18:00,40.9,40.4,29.83,West,260,5.0,6.0,98,0.01,,,0.05,VWS V14.01,2013-01-28 13:18:00,
2013-01-28 07:23:00,41.0,40.5,29.84,WSW,252,4.0,6.0,98,0.01,,,0.05,VWS V14.01,2013-01-28 13:23:00,
2013-01-28 07:28:00,41.1,40.6,29.84,WSW,252,2.0,7.0,98,0.01,,,0.05,VWS V14.01,2013-01-28 13:28:00,
2013-01-28 07:30:00,41.0,40.5,29.84,WSW,252,3.0,7.0,98,0.01,,OVC012,0.05,VWS V14.01,2013-01-28 13:30:00,
2013-01-28 07:33:00,40.9,40.4,29.84,SW,234,5.0,5.0,98,0.00,,,0.05,VWS V14.01,2013-01-28 13:33:00,
2013-01-28 07:38:00,40.9,40.4,29.84,WSW,250,3.0,6.0,98,0.00,,,0.05,VWS V14.01,2013-01-28 13:38:00,
2013-01-28 07:43:00,40.7,40.2,29.85,West,265,4.0,6.0,98,0.00,,,0.05,VWS V14.01,2013-01-28 13:43:00,
2013-01-28 07:48:00,40.7,40.2,29.85,West,281,4.0,6.0,98,0.00,,,0.05,VWS V14.01,2013-01-28 13:48:00,
2013-01-28 07:53:00,40.5,40.0,29.85,WNW,286,5.0,6.0,98,0.00,,,0.05,VWS V14.01,2013-01-28 13:53:00,
2013-01-28 07:58:00,40.4,39.9,29.86,West,281,4.0,6.0,98,0.00,,,0.05,VWS V14.01,2013-01-28 13:58:00,
2013-01-28 08:00:00,40.6,40.1,29.86,WNW,282,5.0,7.0,98,0.00,,OVC012,0.05,VWS V14.01,2013-01-28 14:00:00,
2013-01-28 08:03:00,41.2,40.7,29.86,West,268,7.0,8.0,98,0.00,,,0.05,VWS V14.01,2013-01-28 14:03:00,
2013-01-28 08:08:00,42.1,41.6,29.86,West,279,7.0,10.0,98,0.00,,,0.05,VWS V14.01,2013-01-28 14:08:00,
2013-01-28 08:13:00,42.7,42.4,29.86,NW,326,7.0,14.0,99,0.00,,,0.05,VWS V14.01,2013-01-28 14:13:00,
2013-01-28 08:18:00,42.5,42.0,29.87,West,273,7.0,14.0,98,0.00,,,0.05,VWS V14.01,2013-01-28 14:18:00,
2013-01-28 08:23:00,42.4,41.9,29.87,WNW,289,7.0,14.0,98,0.00,,,0.05,VWS V14.01,2013-01-28 14:23:00,
2013-01-28 08:28:00,42.2,41.7,29.87,NW,317,4.0,14.0,98,0.00,,,0.05,VWS V14.01,2013-01-28 14:28:00,
2013-01-28 08:30:00,42.2,41.7,29.88,West,280,4.0,14.0,98,0.00,,OVC012,0.05,VWS V14.01,2013-01-28 14:30:00,
2013-01-28 08:33:00,42.1,41.6,29.88,WNW,286,5.0,12.0,98,0.00,,,0.05,VWS V14.01,2013-01-28 14:33:00,
2013-01-28 08:38:00,41.8,41.3,29.88,WNW,295,6.0,12.0,98,0.00,,,0.05,VWS V14.01,2013-01-28 14:38:00,
2013-01-28 08:43:00,41.6,41.1,29.88,WNW,290,3.0,12.0,98,0.00,,,0.05,VWS V14.01,2013-01-28 14:43:00,
2013-01-28 08:48:00,41.5,41.0,29.88,NE,53,2.0,12.0,98,0.00,,,0.05,VWS V14.01,2013-01-28 14:48:00,
2013-01-28 08:53:00,41.4,40.9,29.88,West,263,4.0,12.0,98,0.00,,,0.05,VWS V14.01,2013-01-28 14:53:00,
2013-01-28 08:58:00,41.2,40.7,29.88,NW,310,4.0,12.0,98,0.00,,,0.05,VWS V14.01,2013-01-28 14:58:00,
2013-01-28 09:00:00,41.1,40.6,29.88,WNW,291,9.0,12.0,98,0.00,,OVC012,0.05,VWS V14.01,2013-01-28 15:00:00,
2013-01-28 09:03:00,41.0,40.5,29.89,NW,306,4.0,9.0,98,0.00,,,0.05,VWS V14.01,2013-01-28 15:03:00,
2013-01-28 09:08:00,40.8,40.3,29.89,WNW,292,7.0,10.0,98,0.00,,,0.05,VWS V14.01,2013-01-28 15:08:00,
2013-01-28 09:13:00,40.7,40.2,29.89,WNW,296,5.0,11.0,98,0.00,,,0.05,VWS V14.01,2013-01-28 15:13:00,
2013-01-28 09:18:00,40.7,40.2,29.89,WNW,302,2.0,11.0,98,0.00,,,0.05,VWS V14.01,2013-01-28 15:18:00,
2013-01-28 09:23:00,40.6,40.1,29.89,WNW,289,5.0,11.0,98,0.00,,,0.05,VWS V14.01,2013-01-28 15:23:00,
2013-01-28 09:28:00,40.6,40.1,29.89,WNW,284,6.0,11.0,98,0.00,,,0.05,VWS V14.01,2013-01-28 15:28:00,
2013-01-28 09:30:00,40.6,40.1,29.89,West,279,2.0,11.0,98,0.00,,OVC012,0.05,VWS V14.01,2013-01-28 15:30:00,
2013-01-28 09:33:00,40.6,40.1,29.89,West,275,4.0,6.0,98,0.00,,,0.05,VWS V14.01,2013-01-28 15:33:00,
2013-01-28 09:38:00,40.8,40.3,29.89,WNW,296,4.0,6.0,98,0.00,,,0.05,VWS V14.01,2013-01-28 15:38:00,
2013-01-28 09:43:00,41.0,40.5,29.89,West,279,3.0,6.0,98,0.00,,,0.05,VWS V14.01,2013-01-28 15:43:00,
2013-01-28 09:48:00,41.0,40.5,29.90,WNW,284,5.0,6.0,98,0.00,,,0.05,VWS V14.01,2013-01-28 15:48:00,
2013-01-28 09:53:00,41.2,40.7,29.90,West,263,6.0,6.0,98,0.00,,,0.05,VWS V14.01,2013-01-28 15:53:00,
2013-01-28 09:58:00,41.1,40.3,29.90,WNW,290,7.0,8.0,97,0.00,,,0.05,VWS V14.01,2013-01-28 15:58:00,
2013-01-28 10:00:00,40.9,40.1,29.90,WNW,284,4.0,8.0,97,0.00,,OVC012,0.05,VWS V14.01,2013-01-28 16:00:00,
2013-01-28 10:03:00,40.9,40.1,29.90,WNW,290,4.0,7.0,97,0.00,,,0.05,VWS V14.01,2013-01-28 16:03:00,
2013-01-28 10:08:00,41.0,40.0,29.90,WNW,295,3.0,7.0,96,0.00,,,0.05,VWS V14.01,2013-01-28 16:08:00,
2013-01-28 10:13:00,41.0,40.0,29.90,West,281,2.0,7.0,96,0.00,,,0.05,VWS V14.01,2013-01-28 16:13:00,
2013-01-28 10:18:00,40.9,39.6,29.91,WNW,284,4.0,7.0,95,0.00,,,0.05,VWS V14.01,2013-01-28 16:18:00,
2013-01-28 10:23:00,40.9,39.6,29.91,WNW,296,2.0,7.0,95,0.00,,,0.05,VWS V14.01,2013-01-28 16:23:00,
2013-01-28 10:28:00,41.2,40.2,29.91,NNE,15,0.0,7.0,96,0.00,,,0.05,VWS V14.01,2013-01-28 16:28:00,
2013-01-28 10:30:00,41.3,40.2,29.91,WNW,284,3.0,7.0,96,0.00,,OVC012,0.05,VWS V14.01,2013-01-28 16:30:00,
2013-01-28 10:33:00,41.3,40.0,29.91,West,279,2.0,4.0,95,0.00,,OVC016,0.05,VWS V14.01,2013-01-28 16:33:00,
2013-01-28 10:38:00,41.5,40.2,29.91,NNW,342,1.0,4.0,95,0.00,,SCT016,0.05,VWS V14.01,2013-01-28 16:38:00,
2013-01-28 10:43:00,41.7,39.8,29.91,NNW,329,4.0,8.0,93,0.00,,SCT016,0.05,VWS V14.01,2013-01-28 16:43:00,
2013-01-28 10:48:00,41.6,39.5,29.92,WNW,289,2.0,8.0,92,0.00,,SCT016,0.05,VWS V14.01,2013-01-28 16:48:00,
2013-01-28 10:53:00,41.6,39.5,29.92,WNW,300,2.0,8.0,92,0.00,,BKN016,0.05,VWS V14.01,2013-01-28 16:53:00,
2013-01-28 10:58:00,41.6,39.5,29.91,NW,317,4.0,8.0,92,0.00,,BKN016,0.05,VWS V14.01,2013-01-28 16:58:00,
2013-01-28 11:00:00,41.7,39.5,29.92,NNW,330,2.0,8.0,92,0.00,,OVC012,0.05,VWS V14.01,2013-01-28 17:00:00,
2013-01-28 11:03:00,41.8,39.4,29.92,NNE,16,2.0,6.0,91,0.00,,BKN016,0.05,VWS V14.01,2013-01-28 17:03:00,
2013-01-28 11:08:00,42.1,39.7,29.92,NW,311,3.0,6.0,91,0.00,,BKN016,0.05,VWS V14.01,2013-01-28 17:08:00,
2013-01-28 11:13:00,42.1,39.4,29.91,WNW,302,6.0,9.0,90,0.00,,BKN016,0.05,VWS V14.01,2013-01-28 17:13:00,
2013-01-28 11:18:00,42.1,39.4,29.91,NW,324,3.0,9.0,90,0.00,,BKN016,0.05,VWS V14.01,2013-01-28 17:18:00,
2013-01-28 11:23:00,42.3,39.6,29.91,West,272,2.0,9.0,90,0.00,,BKN016,0.05,VWS V14.01,2013-01-28 17:23:00,
2013-01-28 11:28:00,42.4,39.4,29.91,WSW,257,3.0,9.0,89,0.00,,BKN016,0.05,VWS V14.01,2013-01-28 17:28:00,
2013-01-28 11:30:00,42.4,39.4,29.91,North,350,1.0,9.0,89,0.00,,OVC012,0.05,VWS V14.01,2013-01-28 17:30:00,
2013-01-28 11:33:00,42.4,39.7,29.92,West,275,3.0,3.0,90,0.00,,OVC012,0.05,VWS V14.01,2013-01-28 17:33:00,
2013-01-28 11:38:00,42.6,39.9,29.92,WNW,283,1.0,5.0,90,0.00,,OVC012,0.05,VWS V14.01,2013-01-28 17:38:00,
2013-01-28 11:43:00,42.6,39.6,29.91,NW,322,2.0,6.0,89,0.00,,OVC012,0.05,VWS V14.01,2013-01-28 17:43:00,
2013-01-28 11:48:00,42.6,39.3,29.92,West,271,1.0,6.0,88,0.00,,OVC012,0.05,VWS V14.01,2013-01-28 17:48:00,
2013-01-28 11:53:00,42.5,39.2,29.92,WSW,237,4.0,6.0,88,0.00,,OVC012,0.05,VWS V14.01,2013-01-28 17:53:00,
2013-01-28 11:58:00,42.3,39.3,29.92,West,268,4.0,6.0,89,0.00,,OVC012,0.05,VWS V14.01,2013-01-28 17:58:00,
2013-01-28 12:00:00,42.2,39.2,29.92,West,265,3.0,6.0,89,0.00,,OVC012,0.05,VWS V14.01,2013-01-28 18:00:00,
2013-01-28 12:03:00,42.2,39.2,29.92,WNW,286,7.0,7.0,89,0.00,,OVC012,0.05,VWS V14.01,2013-01-28 18:03:00,
2013-01-28 12:08:00,42.0,39.0,29.92,NNW,347,1.0,7.0,89,0.00,,OVC012,0.05,VWS V14.01,2013-01-28 18:08:00,
2013-01-28 12:13:00,42.1,39.1,29.91,West,280,5.0,7.0,89,0.00,,OVC012,0.05,VWS V14.01,2013-01-28 18:13:00,
2013-01-28 12:18:00,42.0,39.0,29.91,WNW,299,3.0,7.0,89,0.00,,OVC012,0.05,VWS V14.01,2013-01-28 18:18:00,
2013-01-28 12:23:00,42.2,39.2,29.91,NNW,336,2.0,7.0,89,0.00,,OVC012,0.05,VWS V14.01,2013-01-28 18:23:00,
2013-01-28 12:28:00,42.5,39.2,29.90,WSW,244,1.0,7.0,88,0.00,,OVC012,0.05,VWS V14.01,2013-01-28 18:28:00,
2013-01-28 12:30:00,42.6,39.6,29.90,NNE,29,1.0,7.0,89,0.00,,OVC012,0.05,VWS V14.01,2013-01-28 18:30:00,
2013-01-28 12:33:00,42.8,39.2,29.90,NE,42,2.0,5.0,87,0.00,,OVC012,0.05,VWS V14.01,2013-01-28 18:33:00,
2013-01-28 12:38:00,42.9,39.6,29.90,WNW,291,2.0,5.0,88,0.00,,OVC012,0.05,VWS V14.01,2013-01-28 18:38:00,
2013-01-28 12:43:00,42.9,39.3,29.90,WNW,293,1.0,5.0,87,0.00,,OVC012,0.05,VWS V14.01,2013-01-28 18:43:00,
2013-01-28 12:48:00,43.0,39.1,29.90,NW,304,0.0,5.0,86,0.00,,OVC012,0.05,VWS V14.01,2013-01-28 18:48:00,
2013-01-28 12:53:00,43.0,39.4,29.90,NNW,342,2.0,5.0,87,0.00,,OVC012,0.05,VWS V14.01,2013-01-28 18:53:00,
2013-01-28 12:58:00,42.8,38.9,29.90,NNW,333,0.0,5.0,86,0.00,,OVC012,0.05,VWS V14.01,2013-01-28 18:58:00,
2013-01-28 13:00:00,42.8,38.9,29.90,NNW,328,0.0,5.0,86,0.00,,OVC012,0.05,VWS V14.01,2013-01-28 19:00:00,
2013-01-28 13:03:00,42.7,38.8,29.89,North,350,0.0,3.0,86,0.00,,OVC012,0.05,VWS V14.01,2013-01-28 19:03:00,
2013-01-28 13:08:00,42.5,38.6,29.89,WNW,295,3.0,4.0,86,0.00,,OVC012,0.05,VWS V14.01,2013-01-28 19:08:00,
2013-01-28 13:13:00,42.5,38.9,29.89,NNE,32,2.0,4.0,87,0.00,,OVC012,0.05,VWS V14.01,2013-01-28 19:13:00,
2013-01-28 13:18:00,43.0,39.1,29.89,WSW,245,0.0,4.0,86,0.00,,OVC012,0.05,VWS V14.01,2013-01-28 19:18:00,
2013-01-28 13:23:00,43.4,39.5,29.89,West,265,1.0,4.0,86,0.00,,OVC012,0.05,VWS V14.01,2013-01-28 19:23:00,
2013-01-28 13:28:00,43.7,39.2,29.89,WSW,241,2.0,4.0,84,0.00,,OVC012,0.05,VWS V14.01,2013-01-28 19:28:00,
2013-01-28 13:30:00,43.6,39.1,29.89,WSW,251,1.0,5.0,84,0.00,,OVC012,0.05,VWS V14.01,2013-01-28 19:30:00,
2013-01-28 13:33:00,43.6,39.7,29.90,WSW,245,3.0,3.0,86,0.00,,OVC012,0.05,VWS V14.01,2013-01-28 19:33:00,
2013-01-28 13:38:00,43.5,39.3,29.90,SW,223,4.0,4.0,85,0.00,,OVC012,0.05,VWS V14.01,2013-01-28 19:38:00,
2013-01-28 13:43:00,43.4,39.2,29.90,WSW,250,0.0,4.0,85,0.00,,OVC012,0.05,VWS V14.01,2013-01-28 19:43:00,
2013-01-28 13:51:00,43.2,39.0,29.90,West,259,1.0,3.0,86,0.00,,,0.05,weatherlink.com 1.10,2013-01-28 19:51:00,
2013-01-28 14:00:00,42.8,38.9,29.90,SW,225,1.0,4.0,86,0.00,,OVC012,0.00,VWS V14.01,2013-01-28 20:00:00,
2013-01-28 14:06:00,42.7,39.0,29.90,SW,221,2.0,2.0,87,0.00,,,0.05,weatherlink.com 1.10,2013-01-28 20:06:00,
2013-01-28 14:21:00,42.6,39.0,29.90,SSE,159,1.0,4.0,87,0.00,,,0.05,weatherlink.com 1.10,2013-01-28 20:21:00,
2013-01-28 14:30:00,42.7,39.1,29.91,SW,225,1.0,4.0,87,0.00,,OVC012,0.00,VWS V14.01,2013-01-28 20:30:00,
2013-01-28 14:36:00,42.7,39.0,29.92,SW,234,3.0,3.0,87,0.00,,,0.05,weatherlink.com 1.10,2013-01-28 20:36:00,
2013-01-28 14:51:00,42.8,39.0,29.91,ESE,118,1.0,2.0,87,0.00,,,0.05,weatherlink.com 1.10,2013-01-28 20:51:00,
2013-01-28 15:00:00,42.8,39.2,29.91,SW,225,1.0,4.0,87,0.00,,OVC012,0.00,VWS V14.01,2013-01-28 21:00:00,
2013-01-28 15:06:00,42.8,39.0,29.91,SE,130,0.0,1.0,87,0.00,,,0.05,weatherlink.com 1.10,2013-01-28 21:06:00,
2013-01-28 15:21:00,42.6,39.0,29.90,ESE,117,2.0,4.0,87,0.00,,,0.05,weatherlink.com 1.10,2013-01-28 21:21:00,
2013-01-28 15:30:00,42.0,38.7,29.90,ESE,112,1.0,6.0,88,0.00,,OVC012,0.00,VWS V14.01,2013-01-28 21:30:00,
2013-01-28 15:36:00,42.0,39.0,29.90,ENE,78,0.0,3.0,89,0.00,,,0.05,weatherlink.com 1.10,2013-01-28 21:36:00,
2013-01-28 15:51:00,41.6,39.0,29.90,ESE,117,2.0,5.0,89,0.00,,,0.05,weatherlink.com 1.10,2013-01-28 21:51:00,
2013-01-28 16:00:00,41.5,38.8,29.90,ESE,112,2.0,6.0,90,0.00,,OVC012,0.00,VWS V14.01,2013-01-28 22:00:00,
2013-01-28 16:06:00,41.3,39.0,29.90,East,90,3.0,3.0,90,0.00,,,0.05,weatherlink.com 1.10,2013-01-28 22:06:00,
2013-01-28 16:21:00,40.9,39.0,29.90,ESE,103,3.0,5.0,91,0.00,,,0.05,weatherlink.com 1.10,2013-01-28 22:21:00,
2013-01-28 16:30:00,40.6,38.2,29.90,ESE,112,2.0,5.0,91,0.00,,OVC012,0.00,VWS V14.01,2013-01-28 22:30:00,
2013-01-28 16:36:00,40.3,38.0,29.90,ESE,115,1.0,3.0,92,0.00,,,0.05,weatherlink.com 1.10,2013-01-28 22:36:00,
2013-01-28 16:51:00,40.1,38.0,29.91,ESE,108,1.0,3.0,92,0.00,,,0.05,weatherlink.com 1.10,2013-01-28 22:51:00,
2013-01-28 17:00:00,39.7,37.8,29.90,ESE,112,2.0,5.0,93,0.00,,OVC012,0.00,VWS V14.01,2013-01-28 23:00:00,
2013-01-28 17:06:00,39.5,38.0,29.90,ESE,102,1.0,4.0,93,0.00,,,0.05,weatherlink.com 1.10,2013-01-28 23:06:00,
2013-01-28 17:21:00,39.1,38.0,29.90,East,97,6.0,7.0,94,0.00,,,0.05,weatherlink.com 1.10,2013-01-28 23:21:00,
2013-01-28 17:30:00,39.1,37.5,29.91,ESE,112,3.0,7.0,94,0.00,,OVC012,0.00,VWS V14.01,2013-01-28 23:30:00,
2013-01-28 17:36:00,39.1,38.0,29.91,ESE,118,3.0,4.0,94,0.00,,,0.05,weatherlink.com 1.10,2013-01-28 23:36:00,
2013-01-28 17:51:00,38.8,37.0,29.92,ESE,111,3.0,3.0,94,0.00,,,0.05,weatherlink.com 1.10,2013-01-28 23:51:00,
2013-01-28 18:00:00,38.6,37.0,29.92,ESE,112,2.0,6.0,94,0.00,,OVC012,0.00,VWS V14.01,2013-01-29 00:00:00,
2013-01-28 18:06:00,38.6,37.0,29.91,ENE,78,2.0,4.0,95,0.00,,,0.05,weatherlink.com 1.10,2013-01-29 00:06:00,
2013-01-28 18:21:00,38.3,37.0,29.91,SE,138,3.0,5.0,95,0.00,,,0.05,weatherlink.com 1.10,2013-01-29 00:21:00,
2013-01-28 18:30:00,38.2,36.9,29.91,East,90,3.0,7.0,95,0.00,,OVC012,0.00,VWS V14.01,2013-01-29 00:30:00,
2013-01-28 18:36:00,38.1,37.0,29.90,ESE,111,2.0,5.0,95,0.00,,,0.05,weatherlink.com 1.10,2013-01-29 00:36:00,
2013-01-28 18:51:00,37.5,36.0,29.90,ESE,112,3.0,4.0,95,0.00,,,0.05,weatherlink.com 1.10,2013-01-29 00:51:00,
2013-01-28 19:00:00,37.2,36.2,29.91,East,90,3.0,8.0,96,0.00,,OVC012,0.00,VWS V14.01,2013-01-29 01:00:00,
2013-01-28 19:06:00,37.4,36.0,29.90,ESE,102,3.0,6.0,96,0.00,,,0.05,weatherlink.com 1.10,2013-01-29 01:06:00,
2013-01-28 19:21:00,37.9,37.0,29.89,ENE,71,2.0,6.0,96,0.00,,,0.05,weatherlink.com 1.10,2013-01-29 01:21:00,
2013-01-28 19:30:00,37.9,36.9,29.89,East,90,3.0,7.0,96,0.00,,OVC012,0.00,VWS V14.01,2013-01-29 01:30:00,
2013-01-28 19:36:00,37.9,37.0,29.88,ENE,76,5.0,7.0,96,0.00,,,0.05,weatherlink.com 1.10,2013-01-29 01:36:00,
2013-01-28 19:51:00,38.0,37.0,29.88,ESE,115,2.0,7.0,96,0.00,,,0.05,weatherlink.com 1.10,2013-01-29 01:51:00,
2013-01-28 20:00:00,38.1,37.1,29.88,East,90,4.0,9.0,96,0.00,,OVC012,0.00,VWS V14.01,2013-01-29 02:00:00,
2013-01-28 20:06:00,38.4,37.0,29.88,ESE,111,5.0,9.0,96,0.00,,,0.05,weatherlink.com 1.10,2013-01-29 02:06:00,
2013-01-28 20:21:00,39.0,38.0,29.88,ESE,120,7.0,9.0,96,0.00,,,0.05,weatherlink.com 1.10,2013-01-29 02:21:00,
2013-01-28 20:30:00,39.0,38.0,29.88,ESE,112,5.0,10.0,96,0.00,,OVC012,0.00,VWS V14.01,2013-01-29 02:30:00,
2013-01-28 20:36:00,39.0,38.0,29.88,ENE,73,3.0,8.0,96,0.00,,,0.05,weatherlink.com 1.10,2013-01-29 02:36:00,
2013-01-28 20:51:00,38.7,38.0,29.87,East,89,7.0,9.0,96,0.00,,,0.05,weatherlink.com 1.10,2013-01-29 02:51:00,
2013-01-28 21:00:00,38.7,37.9,29.87,ESE,112,5.0,11.0,97,0.00,,OVC012,0.00,VWS V14.01,2013-01-29 03:00:00,
2013-01-28 21:06:00,38.7,38.0,29.86,East,97,9.0,10.0,97,0.00,,,0.05,weatherlink.com 1.10,2013-01-29 03:06:00,
2013-01-28 21:21:00,38.4,38.0,29.85,ENE,77,7.0,9.0,97,0.00,,,0.05,weatherlink.com 1.10,2013-01-29 03:21:00,
2013-01-28 21:30:00,38.2,37.4,29.85,East,90,5.0,11.0,97,0.00,,OVC012,0.00,VWS V14.01,2013-01-29 03:30:00,
2013-01-28 21:36:00,38.1,37.0,29.84,East,91,7.0,9.0,97,0.00,,,0.05,weatherlink.com 1.10,2013-01-29 03:36:00,
2013-01-28 21:51:00,38.2,38.0,29.83,ESE,102,4.0,10.0,98,0.01,,,0.06,weatherlink.com 1.10,2013-01-29 03:51:00,
2013-01-28 22:00:00,38.3,37.8,29.82,ESE,112,6.0,13.0,98,0.01,,OVC012,0.01,VWS V14.01,2013-01-29 04:00:00,
2013-01-28 22:06:00,38.4,38.0,29.81,East,91,8.0,13.0,98,0.01,,,0.06,weatherlink.com 1.10,2013-01-29 04:06:00,
2013-01-28 22:21:00,38.7,38.0,29.79,ESE,115,10.0,15.0,98,0.01,,,0.06,weatherlink.com 1.10,2013-01-29 04:21:00,
2013-01-28 22:30:00,38.8,38.3,29.79,ESE,112,8.0,19.0,98,0.01,,OVC012,0.01,VWS V14.01,2013-01-29 04:30:00,
2013-01-28 22:36:00,39.0,39.0,29.79,East,84,6.0,14.0,98,0.01,,,0.06,weatherlink.com 1.10,2013-01-29 04:36:00,
2013-01-28 22:51:00,39.1,39.0,29.76,SE,125,4.0,16.0,98,0.00,,,0.06,weatherlink.com 1.10,2013-01-29 04:51:00,
2013-01-28 23:00:00,38.9,38.4,29.75,ESE,112,8.0,18.0,98,0.06,,OVC012,0.06,VWS V14.01,2013-01-29 05:00:00,
2013-01-28 23:06:00,39.2,39.0,29.76,South,171,4.0,14.0,98,0.08,,,0.14,weatherlink.com 1.10,2013-01-29 05:06:00,
2013-01-28 23:21:00,40.3,40.0,29.76,ESE,108,2.0,16.0,98,0.12,,,0.18,weatherlink.com 1.10,2013-01-29 05:21:00,
2013-01-28 23:30:00,40.4,39.9,29.75,ESE,112,7.0,17.0,98,0.12,,OVC012,0.13,VWS V14.01,2013-01-29 05:30:00,
2013-01-28 23:36:00,40.5,40.0,29.75,ESE,105,7.0,12.0,98,0.12,,,0.18,weatherlink.com 1.10,2013-01-29 05:36:00,
2013-01-28 23:51:00,40.5,40.0,29.75,East,88,9.0,10.0,98,0.12,,,0.18,weatherlink.com 1.10,2013-01-29 05:51:00,